sensor_id;sensor_type;location;lat;lon;timestamp;temperature;humidity
569;DHT22;269;48.884;9.192;2023-03-14T00:00:15;9.80;99.90
569;DHT22;269;48.884;9.192;2023-03-14T00:02:42;9.80;99.90
569;DHT22;269;48.884;9.192;2023-03-14T00:05:09;9.80;99.90
569;DHT22;269;48.884;9.192;2023-03-14T00:07:38;9.80;99.90
569;DHT22;269;48.884;9.192;2023-03-14T00:10:07;9.80;99.90
569;DHT22;269;48.884;9.192;2023-03-14T00:12:34;9.80;99.90
569;DHT22;269;48.884;9.192;2023-03-14T00:15:03;9.80;99.90
569;DHT22;269;48.884;9.192;2023-03-14T00:17:33;9.90;99.90
569;DHT22;269;48.884;9.192;2023-03-14T00:20:00;9.90;99.90
569;DHT22;269;48.884;9.192;2023-03-14T00:22:34;9.90;99.90
569;DHT22;269;48.884;9.192;2023-03-14T00:25:02;9.90;99.90
569;DHT22;269;48.884;9.192;2023-03-14T00:27:29;9.90;99.90
569;DHT22;269;48.884;9.192;2023-03-14T00:29:56;9.90;99.90
569;DHT22;269;48.884;9.192;2023-03-14T00:32:25;10.00;99.90
569;DHT22;269;48.884;9.192;2023-03-14T00:34:52;10.00;99.90
569;DHT22;269;48.884;9.192;2023-03-14T00:37:19;10.00;99.90
569;DHT22;269;48.884;9.192;2023-03-14T00:39:46;10.00;99.90
569;DHT22;269;48.884;9.192;2023-03-14T00:42:13;10.00;99.90
569;DHT22;269;48.884;9.192;2023-03-14T00:44:40;10.00;99.90
569;DHT22;269;48.884;9.192;2023-03-14T00:47:07;10.10;99.90
569;DHT22;269;48.884;9.192;2023-03-14T00:49:36;10.10;99.90
569;DHT22;269;48.884;9.192;2023-03-14T00:52:03;10.10;99.90
569;DHT22;269;48.884;9.192;2023-03-14T00:54:31;10.10;99.90
569;DHT22;269;48.884;9.192;2023-03-14T00:56:58;10.10;99.90
569;DHT22;269;48.884;9.192;2023-03-14T00:59:25;10.10;99.90
569;DHT22;269;48.884;9.192;2023-03-14T01:01:52;10.10;99.90
569;DHT22;269;48.884;9.192;2023-03-14T01:04:19;10.20;99.90
569;DHT22;269;48.884;9.192;2023-03-14T01:06:47;10.20;99.90
569;DHT22;269;48.884;9.192;2023-03-14T01:09:14;10.20;99.90
569;DHT22;269;48.884;9.192;2023-03-14T01:11:43;10.20;99.90
569;DHT22;269;48.884;9.192;2023-03-14T01:14:12;10.20;99.90
569;DHT22;269;48.884;9.192;2023-03-14T01:16:39;10.30;99.90
569;DHT22;269;48.884;9.192;2023-03-14T01:19:06;10.30;99.90
569;DHT22;269;48.884;9.192;2023-03-14T01:21:34;10.30;99.90
569;DHT22;269;48.884;9.192;2023-03-14T01:24:05;10.30;99.90
569;DHT22;269;48.884;9.192;2023-03-14T01:26:33;10.30;99.90
569;DHT22;269;48.884;9.192;2023-03-14T01:29:01;10.30;99.90
569;DHT22;269;48.884;9.192;2023-03-14T01:31:29;10.40;99.90
569;DHT22;269;48.884;9.192;2023-03-14T01:33:56;10.30;99.90
569;DHT22;269;48.884;9.192;2023-03-14T01:36:23;10.20;99.90
569;DHT22;269;48.884;9.192;2023-03-14T01:38:50;10.20;99.90
569;DHT22;269;48.884;9.192;2023-03-14T01:41:21;10.20;99.90
569;DHT22;269;48.884;9.192;2023-03-14T01:43:48;10.20;99.90
569;DHT22;269;48.884;9.192;2023-03-14T01:46:30;10.20;99.90
569;DHT22;269;48.884;9.192;2023-03-14T01:49:03;10.20;99.90
569;DHT22;269;48.884;9.192;2023-03-14T01:51:34;10.20;99.90
569;DHT22;269;48.884;9.192;2023-03-14T01:54:08;10.30;99.90
569;DHT22;269;48.884;9.192;2023-03-14T01:56:39;10.20;99.90
569;DHT22;269;48.884;9.192;2023-03-14T01:59:08;10.30;99.90
569;DHT22;269;48.884;9.192;2023-03-14T02:01:36;10.30;99.90
569;DHT22;269;48.884;9.192;2023-03-14T02:04:05;10.30;99.90
569;DHT22;269;48.884;9.192;2023-03-14T02:06:42;10.30;99.90
569;DHT22;269;48.884;9.192;2023-03-14T02:09:11;10.30;99.90
569;DHT22;269;48.884;9.192;2023-03-14T02:11:39;10.30;99.90
569;DHT22;269;48.884;9.192;2023-03-14T02:14:07;10.30;99.90
569;DHT22;269;48.884;9.192;2023-03-14T02:16:36;10.30;99.90
569;DHT22;269;48.884;9.192;2023-03-14T02:19:05;10.30;99.90
569;DHT22;269;48.884;9.192;2023-03-14T02:21:40;10.40;99.90
569;DHT22;269;48.884;9.192;2023-03-14T02:24:17;10.40;99.90
569;DHT22;269;48.884;9.192;2023-03-14T02:27:07;10.40;99.90
569;DHT22;269;48.884;9.192;2023-03-14T02:29:37;10.50;99.90
569;DHT22;269;48.884;9.192;2023-03-14T02:32:06;10.50;99.90
569;DHT22;269;48.884;9.192;2023-03-14T02:34:34;10.50;99.90
569;DHT22;269;48.884;9.192;2023-03-14T02:37:02;10.50;99.90
569;DHT22;269;48.884;9.192;2023-03-14T02:39:35;10.50;99.90
569;DHT22;269;48.884;9.192;2023-03-14T02:42:05;10.50;99.90
569;DHT22;269;48.884;9.192;2023-03-14T02:44:31;10.50;99.90
569;DHT22;269;48.884;9.192;2023-03-14T02:46:59;10.50;99.90
569;DHT22;269;48.884;9.192;2023-03-14T02:49:28;10.50;99.90
569;DHT22;269;48.884;9.192;2023-03-14T02:51:58;10.50;99.90
569;DHT22;269;48.884;9.192;2023-03-14T02:54:24;10.40;99.90
569;DHT22;269;48.884;9.192;2023-03-14T02:56:52;10.40;99.90
569;DHT22;269;48.884;9.192;2023-03-14T02:59:20;10.40;99.90
569;DHT22;269;48.884;9.192;2023-03-14T03:01:47;10.40;99.90
569;DHT22;269;48.884;9.192;2023-03-14T03:04:14;10.40;99.90
569;DHT22;269;48.884;9.192;2023-03-14T03:06:41;10.40;99.90
569;DHT22;269;48.884;9.192;2023-03-14T03:09:08;10.40;99.90
569;DHT22;269;48.884;9.192;2023-03-14T03:11:35;10.40;99.90
569;DHT22;269;48.884;9.192;2023-03-14T03:14:02;10.40;99.90
569;DHT22;269;48.884;9.192;2023-03-14T03:16:30;10.40;99.90
569;DHT22;269;48.884;9.192;2023-03-14T03:18:57;10.40;99.90
569;DHT22;269;48.884;9.192;2023-03-14T03:21:24;10.30;99.90
569;DHT22;269;48.884;9.192;2023-03-14T03:23:51;10.30;99.90
569;DHT22;269;48.884;9.192;2023-03-14T03:26:18;10.30;99.90
569;DHT22;269;48.884;9.192;2023-03-14T03:28:45;10.40;99.90
569;DHT22;269;48.884;9.192;2023-03-14T03:31:12;10.40;99.90
569;DHT22;269;48.884;9.192;2023-03-14T03:33:41;10.30;99.90
569;DHT22;269;48.884;9.192;2023-03-14T03:36:09;10.30;99.90
569;DHT22;269;48.884;9.192;2023-03-14T03:38:36;10.30;99.90
569;DHT22;269;48.884;9.192;2023-03-14T03:41:04;10.30;99.90
569;DHT22;269;48.884;9.192;2023-03-14T03:43:31;10.30;99.90
569;DHT22;269;48.884;9.192;2023-03-14T03:46:02;10.30;99.90
569;DHT22;269;48.884;9.192;2023-03-14T03:48:29;10.30;99.90
569;DHT22;269;48.884;9.192;2023-03-14T03:50:57;10.30;99.90
569;DHT22;269;48.884;9.192;2023-03-14T03:53:24;10.30;99.90
569;DHT22;269;48.884;9.192;2023-03-14T03:55:51;10.20;99.90
569;DHT22;269;48.884;9.192;2023-03-14T03:58:18;10.20;99.90
569;DHT22;269;48.884;9.192;2023-03-14T04:00:46;10.20;99.90
569;DHT22;269;48.884;9.192;2023-03-14T04:03:13;10.20;99.90
569;DHT22;269;48.884;9.192;2023-03-14T04:05:40;10.20;99.90
569;DHT22;269;48.884;9.192;2023-03-14T04:08:08;10.20;99.90
569;DHT22;269;48.884;9.192;2023-03-14T04:10:36;10.20;99.90
569;DHT22;269;48.884;9.192;2023-03-14T04:13:03;10.20;99.90
569;DHT22;269;48.884;9.192;2023-03-14T04:15:30;10.20;99.90
569;DHT22;269;48.884;9.192;2023-03-14T04:17:58;10.20;99.90
569;DHT22;269;48.884;9.192;2023-03-14T04:20:25;10.20;99.90
569;DHT22;269;48.884;9.192;2023-03-14T04:22:52;10.10;99.90
569;DHT22;269;48.884;9.192;2023-03-14T04:25:21;10.20;99.90
569;DHT22;269;48.884;9.192;2023-03-14T04:27:48;10.10;99.90
569;DHT22;269;48.884;9.192;2023-03-14T04:30:15;10.10;99.90
569;DHT22;269;48.884;9.192;2023-03-14T04:32:42;10.10;99.90
569;DHT22;269;48.884;9.192;2023-03-14T04:35:09;10.10;99.90
569;DHT22;269;48.884;9.192;2023-03-14T04:37:36;10.10;99.90
569;DHT22;269;48.884;9.192;2023-03-14T04:40:04;10.10;99.90
569;DHT22;269;48.884;9.192;2023-03-14T04:42:33;10.10;99.90
569;DHT22;269;48.884;9.192;2023-03-14T04:45:01;10.10;99.90
569;DHT22;269;48.884;9.192;2023-03-14T04:47:28;10.00;99.90
569;DHT22;269;48.884;9.192;2023-03-14T04:49:55;10.00;99.90
569;DHT22;269;48.884;9.192;2023-03-14T04:52:22;10.00;99.90
569;DHT22;269;48.884;9.192;2023-03-14T04:54:49;10.00;99.90
569;DHT22;269;48.884;9.192;2023-03-14T04:57:16;10.00;99.90
569;DHT22;269;48.884;9.192;2023-03-14T04:59:44;10.00;99.90
569;DHT22;269;48.884;9.192;2023-03-14T05:02:12;10.00;99.90
569;DHT22;269;48.884;9.192;2023-03-14T05:04:38;9.90;99.90
569;DHT22;269;48.884;9.192;2023-03-14T05:07:05;9.90;99.90
569;DHT22;269;48.884;9.192;2023-03-14T05:09:33;9.90;99.90
569;DHT22;269;48.884;9.192;2023-03-14T05:11:59;9.90;99.90
569;DHT22;269;48.884;9.192;2023-03-14T05:14:26;9.90;99.90
569;DHT22;269;48.884;9.192;2023-03-14T05:16:55;9.80;99.90
569;DHT22;269;48.884;9.192;2023-03-14T05:19:22;9.80;99.90
569;DHT22;269;48.884;9.192;2023-03-14T05:21:49;9.80;99.90
569;DHT22;269;48.884;9.192;2023-03-14T05:24:16;9.80;99.90
569;DHT22;269;48.884;9.192;2023-03-14T05:26:43;9.80;99.90
569;DHT22;269;48.884;9.192;2023-03-14T05:29:10;9.80;99.90
569;DHT22;269;48.884;9.192;2023-03-14T05:31:37;9.80;99.90
569;DHT22;269;48.884;9.192;2023-03-14T05:34:06;9.80;99.90
569;DHT22;269;48.884;9.192;2023-03-14T05:36:33;9.80;99.90
569;DHT22;269;48.884;9.192;2023-03-14T05:39:01;9.80;99.90
569;DHT22;269;48.884;9.192;2023-03-14T05:41:28;9.80;99.90
569;DHT22;269;48.884;9.192;2023-03-14T05:43:56;9.80;99.90
569;DHT22;269;48.884;9.192;2023-03-14T05:46:23;9.80;99.90
569;DHT22;269;48.884;9.192;2023-03-14T05:48:50;9.80;99.90
569;DHT22;269;48.884;9.192;2023-03-14T05:51:19;9.90;99.90
569;DHT22;269;48.884;9.192;2023-03-14T05:53:46;9.90;99.90
569;DHT22;269;48.884;9.192;2023-03-14T05:56:14;9.90;99.90
569;DHT22;269;48.884;9.192;2023-03-14T05:58:41;9.90;99.90
569;DHT22;269;48.884;9.192;2023-03-14T06:01:09;9.90;99.90
569;DHT22;269;48.884;9.192;2023-03-14T06:03:36;9.90;99.90
569;DHT22;269;48.884;9.192;2023-03-14T06:06:03;9.90;99.90
569;DHT22;269;48.884;9.192;2023-03-14T06:08:32;9.90;99.90
569;DHT22;269;48.884;9.192;2023-03-14T06:11:02;10.00;99.90
569;DHT22;269;48.884;9.192;2023-03-14T06:13:29;10.00;99.90
569;DHT22;269;48.884;9.192;2023-03-14T06:15:57;10.00;99.90
569;DHT22;269;48.884;9.192;2023-03-14T06:18:24;10.00;99.90
569;DHT22;269;48.884;9.192;2023-03-14T06:20:53;10.00;99.90
569;DHT22;269;48.884;9.192;2023-03-14T06:23:21;10.00;99.90
569;DHT22;269;48.884;9.192;2023-03-14T06:25:50;10.00;99.90
569;DHT22;269;48.884;9.192;2023-03-14T06:28:18;10.00;99.90
569;DHT22;269;48.884;9.192;2023-03-14T06:30:46;10.00;99.90
569;DHT22;269;48.884;9.192;2023-03-14T06:33:13;10.00;99.90
569;DHT22;269;48.884;9.192;2023-03-14T06:35:40;10.00;99.90
569;DHT22;269;48.884;9.192;2023-03-14T06:38:07;10.10;99.90
569;DHT22;269;48.884;9.192;2023-03-14T06:40:35;10.10;99.90
569;DHT22;269;48.884;9.192;2023-03-14T06:43:03;10.00;99.90
569;DHT22;269;48.884;9.192;2023-03-14T06:45:31;10.10;99.90
569;DHT22;269;48.884;9.192;2023-03-14T06:47:59;10.10;99.90
569;DHT22;269;48.884;9.192;2023-03-14T06:50:26;10.10;99.90
569;DHT22;269;48.884;9.192;2023-03-14T06:52:54;10.20;99.90
569;DHT22;269;48.884;9.192;2023-03-14T06:55:22;10.30;99.90
569;DHT22;269;48.884;9.192;2023-03-14T06:57:49;10.30;99.90
569;DHT22;269;48.884;9.192;2023-03-14T07:00:18;10.40;99.90
569;DHT22;269;48.884;9.192;2023-03-14T07:02:46;10.60;99.90
569;DHT22;269;48.884;9.192;2023-03-14T07:05:13;10.60;99.90
569;DHT22;269;48.884;9.192;2023-03-14T07:07:41;10.70;99.90
569;DHT22;269;48.884;9.192;2023-03-14T07:10:09;10.80;99.90
569;DHT22;269;48.884;9.192;2023-03-14T07:12:37;10.80;99.90
569;DHT22;269;48.884;9.192;2023-03-14T07:15:05;10.80;99.90
569;DHT22;269;48.884;9.192;2023-03-14T07:17:34;10.90;99.90
569;DHT22;269;48.884;9.192;2023-03-14T07:20:02;11.10;99.90
569;DHT22;269;48.884;9.192;2023-03-14T07:22:31;11.20;99.90
569;DHT22;269;48.884;9.192;2023-03-14T07:24:59;11.40;99.90
569;DHT22;269;48.884;9.192;2023-03-14T07:27:26;11.20;99.90
569;DHT22;269;48.884;9.192;2023-03-14T07:29:54;11.50;99.90
569;DHT22;269;48.884;9.192;2023-03-14T07:32:21;11.50;99.90
569;DHT22;269;48.884;9.192;2023-03-14T07:34:50;11.50;99.90
569;DHT22;269;48.884;9.192;2023-03-14T07:37:17;11.50;99.90
569;DHT22;269;48.884;9.192;2023-03-14T07:39:45;11.60;99.90
569;DHT22;269;48.884;9.192;2023-03-14T07:42:12;11.60;99.90
569;DHT22;269;48.884;9.192;2023-03-14T07:44:40;11.70;99.90
569;DHT22;269;48.884;9.192;2023-03-14T07:47:08;11.80;99.90
569;DHT22;269;48.884;9.192;2023-03-14T07:49:35;11.80;99.90
569;DHT22;269;48.884;9.192;2023-03-14T07:52:04;11.80;99.90
569;DHT22;269;48.884;9.192;2023-03-14T07:54:32;11.90;99.90
569;DHT22;269;48.884;9.192;2023-03-14T07:56:59;11.90;99.90
569;DHT22;269;48.884;9.192;2023-03-14T07:59:27;12.00;99.90
569;DHT22;269;48.884;9.192;2023-03-14T08:01:54;12.10;99.90
569;DHT22;269;48.884;9.192;2023-03-14T08:04:22;12.10;99.90
569;DHT22;269;48.884;9.192;2023-03-14T08:06:49;12.20;99.90
569;DHT22;269;48.884;9.192;2023-03-14T08:09:18;12.40;99.90
569;DHT22;269;48.884;9.192;2023-03-14T08:11:45;12.60;99.90
569;DHT22;269;48.884;9.192;2023-03-14T08:14:13;12.90;99.90
569;DHT22;269;48.884;9.192;2023-03-14T08:16:40;13.20;99.90
569;DHT22;269;48.884;9.192;2023-03-14T08:19:08;13.40;99.90
569;DHT22;269;48.884;9.192;2023-03-14T08:21:35;13.70;99.90
569;DHT22;269;48.884;9.192;2023-03-14T08:24:02;13.70;99.90
569;DHT22;269;48.884;9.192;2023-03-14T08:26:31;13.70;99.90
569;DHT22;269;48.884;9.192;2023-03-14T08:28:59;13.70;99.90
569;DHT22;269;48.884;9.192;2023-03-14T08:31:26;13.80;99.90
569;DHT22;269;48.884;9.192;2023-03-14T08:33:54;13.60;99.90
569;DHT22;269;48.884;9.192;2023-03-14T08:36:22;13.40;99.90
569;DHT22;269;48.884;9.192;2023-03-14T08:38:49;13.10;99.90
569;DHT22;269;48.884;9.192;2023-03-14T08:41:16;12.90;99.90
569;DHT22;269;48.884;9.192;2023-03-14T08:43:45;13.10;99.90
569;DHT22;269;48.884;9.192;2023-03-14T08:46:13;13.20;99.90
569;DHT22;269;48.884;9.192;2023-03-14T08:48:40;13.30;99.90
569;DHT22;269;48.884;9.192;2023-03-14T08:51:09;13.30;99.90
569;DHT22;269;48.884;9.192;2023-03-14T08:53:38;13.30;99.90
569;DHT22;269;48.884;9.192;2023-03-14T08:56:07;13.30;99.90
569;DHT22;269;48.884;9.192;2023-03-14T08:58:36;13.40;99.90
569;DHT22;269;48.884;9.192;2023-03-14T09:01:07;13.60;99.90
569;DHT22;269;48.884;9.192;2023-03-14T09:03:35;13.70;99.90
569;DHT22;269;48.884;9.192;2023-03-14T09:06:03;13.70;99.90
569;DHT22;269;48.884;9.192;2023-03-14T09:08:31;13.40;99.90
569;DHT22;269;48.884;9.192;2023-03-14T09:10:59;13.20;99.90
569;DHT22;269;48.884;9.192;2023-03-14T09:13:27;13.00;99.90
569;DHT22;269;48.884;9.192;2023-03-14T09:15:55;12.80;99.90
569;DHT22;269;48.884;9.192;2023-03-14T09:18:24;12.70;99.90
569;DHT22;269;48.884;9.192;2023-03-14T09:20:52;12.70;99.90
569;DHT22;269;48.884;9.192;2023-03-14T09:23:19;12.40;99.90
569;DHT22;269;48.884;9.192;2023-03-14T09:25:47;12.70;99.90
569;DHT22;269;48.884;9.192;2023-03-14T09:28:14;12.50;99.90
569;DHT22;269;48.884;9.192;2023-03-14T09:30:42;12.60;99.90
569;DHT22;269;48.884;9.192;2023-03-14T09:33:09;12.50;99.90
569;DHT22;269;48.884;9.192;2023-03-14T09:35:38;12.30;99.90
569;DHT22;269;48.884;9.192;2023-03-14T09:38:05;12.10;99.90
569;DHT22;269;48.884;9.192;2023-03-14T09:40:35;12.10;99.90
569;DHT22;269;48.884;9.192;2023-03-14T09:43:04;12.20;99.90
569;DHT22;269;48.884;9.192;2023-03-14T09:45:33;12.30;99.90
569;DHT22;269;48.884;9.192;2023-03-14T09:48:03;12.30;99.90
569;DHT22;269;48.884;9.192;2023-03-14T09:50:35;12.20;99.90
569;DHT22;269;48.884;9.192;2023-03-14T09:53:10;12.20;99.90
569;DHT22;269;48.884;9.192;2023-03-14T09:55:39;12.20;99.90
569;DHT22;269;48.884;9.192;2023-03-14T09:58:11;12.20;99.90
569;DHT22;269;48.884;9.192;2023-03-14T10:00:39;12.30;99.90
569;DHT22;269;48.884;9.192;2023-03-14T10:03:24;12.30;99.90
569;DHT22;269;48.884;9.192;2023-03-14T10:05:52;12.50;99.90
569;DHT22;269;48.884;9.192;2023-03-14T10:08:21;12.60;99.90
569;DHT22;269;48.884;9.192;2023-03-14T10:10:48;12.90;99.90
569;DHT22;269;48.884;9.192;2023-03-14T10:13:19;12.90;99.90
569;DHT22;269;48.884;9.192;2023-03-14T10:15:51;13.20;99.90
569;DHT22;269;48.884;9.192;2023-03-14T10:18:19;13.50;99.90
569;DHT22;269;48.884;9.192;2023-03-14T10:20:48;13.70;99.90
569;DHT22;269;48.884;9.192;2023-03-14T10:23:24;13.90;99.90
569;DHT22;269;48.884;9.192;2023-03-14T10:26:03;14.00;99.90
569;DHT22;269;48.884;9.192;2023-03-14T10:28:33;14.00;99.90
569;DHT22;269;48.884;9.192;2023-03-14T10:31:02;14.10;99.90
569;DHT22;269;48.884;9.192;2023-03-14T10:33:32;14.30;99.90
569;DHT22;269;48.884;9.192;2023-03-14T10:36:01;14.00;99.90
569;DHT22;269;48.884;9.192;2023-03-14T10:38:32;13.80;99.90
569;DHT22;269;48.884;9.192;2023-03-14T10:41:00;13.60;99.90
569;DHT22;269;48.884;9.192;2023-03-14T10:43:32;13.60;99.90
569;DHT22;269;48.884;9.192;2023-03-14T10:46:05;13.50;99.90
569;DHT22;269;48.884;9.192;2023-03-14T10:48:34;13.40;99.90
569;DHT22;269;48.884;9.192;2023-03-14T10:51:06;13.20;99.90
569;DHT22;269;48.884;9.192;2023-03-14T10:53:40;13.00;99.90
569;DHT22;269;48.884;9.192;2023-03-14T10:56:12;13.00;99.90
569;DHT22;269;48.884;9.192;2023-03-14T10:58:41;12.90;99.90
569;DHT22;269;48.884;9.192;2023-03-14T11:01:23;12.80;99.90
569;DHT22;269;48.884;9.192;2023-03-14T11:03:57;12.70;99.90
569;DHT22;269;48.884;9.192;2023-03-14T11:06:34;12.60;99.90
569;DHT22;269;48.884;9.192;2023-03-14T11:09:12;12.50;99.90
569;DHT22;269;48.884;9.192;2023-03-14T11:11:46;12.30;99.90
569;DHT22;269;48.884;9.192;2023-03-14T11:14:23;12.10;99.90
569;DHT22;269;48.884;9.192;2023-03-14T11:16:59;11.90;99.90
569;DHT22;269;48.884;9.192;2023-03-14T11:19:43;11.70;99.90
569;DHT22;269;48.884;9.192;2023-03-14T11:22:21;11.60;99.90
569;DHT22;269;48.884;9.192;2023-03-14T11:25:09;11.40;99.90
569;DHT22;269;48.884;9.192;2023-03-14T11:27:43;11.30;99.90
569;DHT22;269;48.884;9.192;2023-03-14T11:30:19;11.20;99.90
569;DHT22;269;48.884;9.192;2023-03-14T11:32:56;11.20;99.90
569;DHT22;269;48.884;9.192;2023-03-14T11:35:30;11.00;99.90
569;DHT22;269;48.884;9.192;2023-03-14T11:38:05;10.90;99.90
569;DHT22;269;48.884;9.192;2023-03-14T11:40:38;10.80;99.90
569;DHT22;269;48.884;9.192;2023-03-14T11:43:12;10.70;99.90
569;DHT22;269;48.884;9.192;2023-03-14T11:45:42;10.70;99.90
569;DHT22;269;48.884;9.192;2023-03-14T11:48:27;10.70;99.90
569;DHT22;269;48.884;9.192;2023-03-14T11:50:57;10.70;99.90
569;DHT22;269;48.884;9.192;2023-03-14T11:53:39;10.80;99.90
569;DHT22;269;48.884;9.192;2023-03-14T11:56:14;10.90;99.90
569;DHT22;269;48.884;9.192;2023-03-14T11:58:50;10.80;99.90
569;DHT22;269;48.884;9.192;2023-03-14T12:01:21;10.80;99.90
569;DHT22;269;48.884;9.192;2023-03-14T12:03:54;10.70;99.90
569;DHT22;269;48.884;9.192;2023-03-14T12:06:26;10.60;99.90
569;DHT22;269;48.884;9.192;2023-03-14T12:08:55;10.60;99.90
569;DHT22;269;48.884;9.192;2023-03-14T12:11:33;10.50;99.90
569;DHT22;269;48.884;9.192;2023-03-14T12:14:01;10.50;99.90
569;DHT22;269;48.884;9.192;2023-03-14T12:16:38;10.50;99.90
569;DHT22;269;48.884;9.192;2023-03-14T12:19:31;10.60;99.90
569;DHT22;269;48.884;9.192;2023-03-14T12:22:08;10.70;99.90
569;DHT22;269;48.884;9.192;2023-03-14T12:24:45;10.80;99.90
569;DHT22;269;48.884;9.192;2023-03-14T12:30:27;10.90;99.90
569;DHT22;269;48.884;9.192;2023-03-14T12:33:20;10.80;99.90
569;DHT22;269;48.884;9.192;2023-03-14T12:35:50;10.70;99.90
569;DHT22;269;48.884;9.192;2023-03-14T12:38:22;10.60;99.90
569;DHT22;269;48.884;9.192;2023-03-14T12:40:56;10.50;99.90
569;DHT22;269;48.884;9.192;2023-03-14T12:43:28;10.20;99.90
569;DHT22;269;48.884;9.192;2023-03-14T12:46:15;10.00;99.90
569;DHT22;269;48.884;9.192;2023-03-14T12:48:47;9.70;99.90
569;DHT22;269;48.884;9.192;2023-03-14T12:51:16;9.70;99.90
569;DHT22;269;48.884;9.192;2023-03-14T12:54:06;9.50;99.90
569;DHT22;269;48.884;9.192;2023-03-14T12:56:45;9.40;99.90
569;DHT22;269;48.884;9.192;2023-03-14T12:59:38;9.70;99.90
569;DHT22;269;48.884;9.192;2023-03-14T13:02:27;10.40;99.90
569;DHT22;269;48.884;9.192;2023-03-14T13:05:03;11.00;99.90
569;DHT22;269;48.884;9.192;2023-03-14T13:07:36;11.60;99.90
569;DHT22;269;48.884;9.192;2023-03-14T13:10:23;12.10;99.90
569;DHT22;269;48.884;9.192;2023-03-14T13:12:54;12.20;99.90
569;DHT22;269;48.884;9.192;2023-03-14T13:15:28;12.10;99.90
569;DHT22;269;48.884;9.192;2023-03-14T13:18:01;12.30;99.90
569;DHT22;269;48.884;9.192;2023-03-14T13:20:31;12.20;99.90
569;DHT22;269;48.884;9.192;2023-03-14T13:22:59;12.30;99.90
569;DHT22;269;48.884;9.192;2023-03-14T13:25:30;12.30;99.90
569;DHT22;269;48.884;9.192;2023-03-14T13:28:01;11.80;99.90
569;DHT22;269;48.884;9.192;2023-03-14T13:30:39;11.30;99.90
569;DHT22;269;48.884;9.192;2023-03-14T13:33:12;11.20;99.90
569;DHT22;269;48.884;9.192;2023-03-14T13:35:41;10.90;99.90
569;DHT22;269;48.884;9.192;2023-03-14T13:38:17;10.80;99.90
569;DHT22;269;48.884;9.192;2023-03-14T13:40:46;10.80;99.90
569;DHT22;269;48.884;9.192;2023-03-14T13:43:17;10.70;99.90
569;DHT22;269;48.884;9.192;2023-03-14T13:45:52;10.60;99.90
569;DHT22;269;48.884;9.192;2023-03-14T13:48:21;10.50;99.90
569;DHT22;269;48.884;9.192;2023-03-14T13:50:54;10.20;99.90
569;DHT22;269;48.884;9.192;2023-03-14T13:53:23;10.20;99.90
569;DHT22;269;48.884;9.192;2023-03-14T13:55:51;10.20;99.90
569;DHT22;269;48.884;9.192;2023-03-14T13:58:24;10.20;99.90
569;DHT22;269;48.884;9.192;2023-03-14T14:01:12;10.20;99.90
569;DHT22;269;48.884;9.192;2023-03-14T14:06:26;9.80;99.90
569;DHT22;269;48.884;9.192;2023-03-14T14:08:55;9.70;99.90
569;DHT22;269;48.884;9.192;2023-03-14T14:11:36;9.70;99.90
569;DHT22;269;48.884;9.192;2023-03-14T14:14:06;9.50;99.90
569;DHT22;269;48.884;9.192;2023-03-14T14:16:36;9.50;99.90
569;DHT22;269;48.884;9.192;2023-03-14T14:19:04;9.50;99.90
569;DHT22;269;48.884;9.192;2023-03-14T14:21:32;9.50;99.90
569;DHT22;269;48.884;9.192;2023-03-14T14:23:59;9.50;99.90
569;DHT22;269;48.884;9.192;2023-03-14T14:26:27;9.50;99.90
569;DHT22;269;48.884;9.192;2023-03-14T14:29:03;9.50;99.90
569;DHT22;269;48.884;9.192;2023-03-14T14:31:30;9.50;99.90
569;DHT22;269;48.884;9.192;2023-03-14T14:34:00;9.50;99.90
569;DHT22;269;48.884;9.192;2023-03-14T14:36:31;9.50;99.80
569;DHT22;269;48.884;9.192;2023-03-14T14:39:00;9.60;99.90
569;DHT22;269;48.884;9.192;2023-03-14T14:41:32;9.50;99.90
569;DHT22;269;48.884;9.192;2023-03-14T14:44:00;9.50;99.90
569;DHT22;269;48.884;9.192;2023-03-14T14:46:31;9.40;99.90
569;DHT22;269;48.884;9.192;2023-03-14T14:49:04;9.50;99.90
569;DHT22;269;48.884;9.192;2023-03-14T14:51:34;9.50;99.90
569;DHT22;269;48.884;9.192;2023-03-14T14:54:13;9.50;99.90
569;DHT22;269;48.884;9.192;2023-03-14T14:56:46;9.50;99.90
569;DHT22;269;48.884;9.192;2023-03-14T14:59:24;9.60;99.90
569;DHT22;269;48.884;9.192;2023-03-14T15:01:58;9.70;99.90
569;DHT22;269;48.884;9.192;2023-03-14T15:04:27;9.90;99.90
569;DHT22;269;48.884;9.192;2023-03-14T15:06:57;9.90;99.90
569;DHT22;269;48.884;9.192;2023-03-14T15:09:24;9.90;99.70
569;DHT22;269;48.884;9.192;2023-03-14T15:11:51;10.30;99.00
569;DHT22;269;48.884;9.192;2023-03-14T15:14:19;10.60;98.70
569;DHT22;269;48.884;9.192;2023-03-14T15:16:46;11.10;98.50
569;DHT22;269;48.884;9.192;2023-03-14T15:19:19;11.60;97.10
569;DHT22;269;48.884;9.192;2023-03-14T15:21:48;11.80;97.30
569;DHT22;269;48.884;9.192;2023-03-14T15:24:15;12.50;96.10
569;DHT22;269;48.884;9.192;2023-03-14T15:26:42;12.60;94.80
569;DHT22;269;48.884;9.192;2023-03-14T15:29:10;12.10;96.40
569;DHT22;269;48.884;9.192;2023-03-14T15:31:38;11.80;95.80
569;DHT22;269;48.884;9.192;2023-03-14T15:34:06;11.80;95.40
569;DHT22;269;48.884;9.192;2023-03-14T15:36:34;12.10;94.90
569;DHT22;269;48.884;9.192;2023-03-14T15:39:05;12.40;95.10
569;DHT22;269;48.884;9.192;2023-03-14T15:41:33;12.30;94.70
569;DHT22;269;48.884;9.192;2023-03-14T15:44:00;11.90;95.00
569;DHT22;269;48.884;9.192;2023-03-14T15:46:27;11.50;95.40
569;DHT22;269;48.884;9.192;2023-03-14T15:48:54;11.00;95.70
569;DHT22;269;48.884;9.192;2023-03-14T15:51:21;10.80;96.70
569;DHT22;269;48.884;9.192;2023-03-14T15:53:48;10.50;96.70
569;DHT22;269;48.884;9.192;2023-03-14T15:56:19;10.30;96.90
569;DHT22;269;48.884;9.192;2023-03-14T15:58:49;10.10;97.40
569;DHT22;269;48.884;9.192;2023-03-14T16:01:17;10.00;97.80
569;DHT22;269;48.884;9.192;2023-03-14T16:03:44;9.90;98.60
569;DHT22;269;48.884;9.192;2023-03-14T16:06:11;10.00;98.60
569;DHT22;269;48.884;9.192;2023-03-14T16:08:39;10.40;98.50
569;DHT22;269;48.884;9.192;2023-03-14T16:11:06;10.60;98.20
569;DHT22;269;48.884;9.192;2023-03-14T16:13:34;10.90;98.30
569;DHT22;269;48.884;9.192;2023-03-14T16:16:03;10.90;98.00
569;DHT22;269;48.884;9.192;2023-03-14T16:18:32;10.80;98.40
569;DHT22;269;48.884;9.192;2023-03-14T16:21:01;10.50;98.70
569;DHT22;269;48.884;9.192;2023-03-14T16:23:29;10.20;99.20
569;DHT22;269;48.884;9.192;2023-03-14T16:25:56;9.80;99.90
569;DHT22;269;48.884;9.192;2023-03-14T16:28:24;9.60;99.90
569;DHT22;269;48.884;9.192;2023-03-14T16:30:59;9.50;99.90
569;DHT22;269;48.884;9.192;2023-03-14T16:33:26;9.50;99.90
569;DHT22;269;48.884;9.192;2023-03-14T16:35:54;9.40;99.90
569;DHT22;269;48.884;9.192;2023-03-14T16:38:22;9.30;99.90
569;DHT22;269;48.884;9.192;2023-03-14T16:40:56;9.20;99.90
569;DHT22;269;48.884;9.192;2023-03-14T16:43:24;9.20;99.90
569;DHT22;269;48.884;9.192;2023-03-14T16:45:52;9.10;99.90
569;DHT22;269;48.884;9.192;2023-03-14T16:48:19;9.10;99.90
569;DHT22;269;48.884;9.192;2023-03-14T16:50:48;9.00;99.90
569;DHT22;269;48.884;9.192;2023-03-14T16:53:15;9.00;99.90
569;DHT22;269;48.884;9.192;2023-03-14T16:55:43;9.00;99.90
569;DHT22;269;48.884;9.192;2023-03-14T16:58:11;8.90;99.90
569;DHT22;269;48.884;9.192;2023-03-14T17:00:39;8.90;99.90